KGMU/GMU METAR and TAF weather

Enter ICAO airport designator
Station Type Date Time Source
KGMU METAR 2021/01/22 05:53 UTC NOAA

KGMU 220553Z AUTO 00000KT 10SM CLR 08/01 A2989 RMK AO2 SLP122 T00830011 10117 20072 58001


Station Type Date Time Source
KGMU Decoded METAR 2021/01/22 05:53 UTC NOAA

GREENVILLE DOWNTOWN AIRPORT , SC, United States (KGMU) 34-51N 82-21W 315M
Jan 22, 2021 - 12:53 AM EST / 2021.01.22 0553 UTC
Wind: Calm:0
Visibility: 10 mile(s):0
Sky conditions: clear
Temperature: 46.9 F (8.3 C)
Dew Point: 34.0 F (1.1 C)
Relative Humidity: 60%
Pressure (altimeter): 29.89 in. Hg (1012 hPa)
Pressure tendency: 0.00 inches (0.1 hPa) lower than three hours ago
ob: KGMU 220553Z AUTO 00000KT 10SM CLR 08/01 A2989 RMK AO2 SLP122 T00830011 10117 20072 58001
cycle: 6

Station Type Date Time Source
KGMU TAF 2021/01/22 06:42 UTC NOAA

TAF KGMU 220539Z 2206/2306 VRB02KT P6SM OVC250
FM221700 26005KT P6SM SCT250
FM222300 31004KT P6SM FEW250

Example: see airport list